Airport View

Enter AWOS ICAO identifier for current METAR.

ex. KFNL

KAVQ 251235Z AUTO 00000KT 10SM CLR 20/01 A2992 RMK AO2 T02030012

25 Sep 2020 13:00

Frequency: 118.375

Phone: 520-682-4104

Other Area AWOS: KRYN - KDMA - KTUS - KCGZ

TAF KDMA 250601Z 2506/2612 VRB06KT 9999 SKC QNH2992INS BECMG 2508/2509 13006KT 9999 SKC QNH2995INS BECMG 2519/2520 32006KT 9999 FEW120 QNH2990INS BECMG 2603/2604 VRB06KT 9999 SKC QNH2995INS TX38/2521Z TN20/2513Z